עמוד ראשי
METAR-TAF:

METAR-TAF

שדות תעופה :

Asahikawa, יפן

קו רוחב: 43-40N, קו אורך: 142-27E, גובה: 208מטר

תצפית מזג אוויר נוכחית

הדו"ח נערך לפני 1 שעות ו 5דקות, בשעה 01:00 UTC
רוח 9קשר מכיוון דרום-מערב, משתנה בין דרום ו מערב/דרום-מערב
טמפרטורת 28 צלסיוס
לחות 74%
לחץ 1002 hPa
ראות 10 קילומטר או יותר
מעט עננים בגובה 1500רגל
עננים פזורים בגובה 3000רגל
עננים בינוניים בגובה 5000רגל

METAR: RJEC 220100Z 22009KT 180V250 9999 FEW015 SCT030 BKN050 28/23 Q1002

זמן: 11:05 (02:05 UTC)

תחזית

הדו"ח נערך לפני 3 שעות ו 0דקות, בשעה 23:05 UTC
תחזית בתוקף מ 22 ב 00 UTC עד 23 ב 06 UTC
רוח 8קשר מכיוון דרום-מערב
ראות 10 קילומטר או יותר
מעט עננים בגובה 1000רגל
עננים בינוניים בגובה 3000רגל
יעשה מ
22 ב 01 UTC עד 22 ב 03 UTC
רוח 10קשר מכיוון מערב
יעשה מ
22 ב 07 UTC עד 22 ב 09 UTC
רוח 12קשר מכיוון דרום
יעשה מ
23 ב 00 UTC עד 23 ב 03 UTC
רוח 6קשר מכיוון מערב

TAF: RJEC 212305Z 2200/2306 22008KT 9999 FEW010 BKN030 BECMG 2201/2203 28010KT BECMG 2207/2209 17012KT BECMG 2300/2303 26006KT

תצפיות ותחזיות מזג אוויר לגבי יותר מ- 4,000 שדות תעופה ברחבי העולם. דוחות METAR ו- TAF.

התחנות הזמינות מסומנות בנקודות צהובות ואדומות על גבי המפה.

העבר את העכבר לנקודה הצבעונית על מנת לראות את שם התחנה.

לאחר מכן, לחץ כדי לראות את תוכן ואת תחזיות מזג האוויר.

כדי לשנות את המפה: לחץ על הכפתורים הירוקים עם הפלוס השחור כדי להתקרב; על הכפתור הירוק עם המקף כדי להתרחק; או בחיצים הירוקים למפות סמוכות.


METAR-TAF: